sensor_id;sensor_type;location;lat;lon;timestamp;temperature;humidity
16287;DHT22;8251;53.568;10.018;2022-07-29T00:01:14;19.00;63.80
16287;DHT22;8251;53.568;10.018;2022-07-29T00:03:41;18.90;63.80
16287;DHT22;8251;53.568;10.018;2022-07-29T00:06:08;18.90;63.80
16287;DHT22;8251;53.568;10.018;2022-07-29T00:08:35;18.90;63.60
16287;DHT22;8251;53.568;10.018;2022-07-29T00:11:04;18.90;63.60
16287;DHT22;8251;53.568;10.018;2022-07-29T00:13:31;18.90;63.50
16287;DHT22;8251;53.568;10.018;2022-07-29T00:15:58;18.90;63.50
16287;DHT22;8251;53.568;10.018;2022-07-29T00:21:41;18.90;63.60
16287;DHT22;8251;53.568;10.018;2022-07-29T00:24:09;18.80;63.60
16287;DHT22;8251;53.568;10.018;2022-07-29T00:26:37;18.80;63.50
16287;DHT22;8251;53.568;10.018;2022-07-29T00:29:04;18.80;63.60
16287;DHT22;8251;53.568;10.018;2022-07-29T00:31:31;18.80;63.80
16287;DHT22;8251;53.568;10.018;2022-07-29T00:33:58;18.80;63.70
16287;DHT22;8251;53.568;10.018;2022-07-29T00:36:25;18.70;63.70
16287;DHT22;8251;53.568;10.018;2022-07-29T00:38:51;18.70;63.80
16287;DHT22;8251;53.568;10.018;2022-07-29T00:41:18;18.70;64.90
16287;DHT22;8251;53.568;10.018;2022-07-29T00:43:47;18.70;64.20
16287;DHT22;8251;53.568;10.018;2022-07-29T00:46:14;18.70;64.20
16287;DHT22;8251;53.568;10.018;2022-07-29T00:48:41;18.60;64.20
16287;DHT22;8251;53.568;10.018;2022-07-29T00:51:08;18.60;64.00
16287;DHT22;8251;53.568;10.018;2022-07-29T00:53:35;18.60;63.70
16287;DHT22;8251;53.568;10.018;2022-07-29T00:56:03;18.60;63.70
16287;DHT22;8251;53.568;10.018;2022-07-29T00:58:31;18.50;63.50
16287;DHT22;8251;53.568;10.018;2022-07-29T01:00:59;18.50;63.70
16287;DHT22;8251;53.568;10.018;2022-07-29T01:03:26;18.50;63.90
16287;DHT22;8251;53.568;10.018;2022-07-29T01:05:54;18.50;63.80
16287;DHT22;8251;53.568;10.018;2022-07-29T01:08:21;18.50;63.80
16287;DHT22;8251;53.568;10.018;2022-07-29T01:10:51;18.50;63.70
16287;DHT22;8251;53.568;10.018;2022-07-29T01:13:19;18.50;63.60
16287;DHT22;8251;53.568;10.018;2022-07-29T01:15:49;18.40;63.60
16287;DHT22;8251;53.568;10.018;2022-07-29T01:18:24;18.40;63.70
16287;DHT22;8251;53.568;10.018;2022-07-29T01:21:16;18.40;63.70
16287;DHT22;8251;53.568;10.018;2022-07-29T01:24:05;18.30;63.80
16287;DHT22;8251;53.568;10.018;2022-07-29T01:26:47;18.30;63.90
16287;DHT22;8251;53.568;10.018;2022-07-29T01:29:27;18.30;63.90
16287;DHT22;8251;53.568;10.018;2022-07-29T01:31:58;18.30;64.00
16287;DHT22;8251;53.568;10.018;2022-07-29T01:34:30;18.30;64.10
16287;DHT22;8251;53.568;10.018;2022-07-29T01:37:06;18.20;64.10
16287;DHT22;8251;53.568;10.018;2022-07-29T01:39:36;18.20;64.10
16287;DHT22;8251;53.568;10.018;2022-07-29T01:42:10;18.30;64.30
16287;DHT22;8251;53.568;10.018;2022-07-29T01:44:48;18.20;64.20
16287;DHT22;8251;53.568;10.018;2022-07-29T01:47:20;18.20;64.20
16287;DHT22;8251;53.568;10.018;2022-07-29T01:49:51;18.20;64.30
16287;DHT22;8251;53.568;10.018;2022-07-29T01:52:21;18.30;64.20
16287;DHT22;8251;53.568;10.018;2022-07-29T01:54:55;18.30;64.10
16287;DHT22;8251;53.568;10.018;2022-07-29T01:57:26;18.30;64.10
16287;DHT22;8251;53.568;10.018;2022-07-29T01:59:57;18.30;64.10
16287;DHT22;8251;53.568;10.018;2022-07-29T02:02:29;18.30;64.20
16287;DHT22;8251;53.568;10.018;2022-07-29T02:05:06;18.30;64.30
16287;DHT22;8251;53.568;10.018;2022-07-29T02:07:34;18.20;64.30
16287;DHT22;8251;53.568;10.018;2022-07-29T02:10:03;18.20;64.30
16287;DHT22;8251;53.568;10.018;2022-07-29T02:12:31;18.20;64.50
16287;DHT22;8251;53.568;10.018;2022-07-29T02:15:02;18.20;64.60
16287;DHT22;8251;53.568;10.018;2022-07-29T02:17:33;18.20;64.90
16287;DHT22;8251;53.568;10.018;2022-07-29T02:20:03;18.20;64.80
16287;DHT22;8251;53.568;10.018;2022-07-29T02:22:33;18.20;65.60
16287;DHT22;8251;53.568;10.018;2022-07-29T02:25:02;18.20;64.80
16287;DHT22;8251;53.568;10.018;2022-07-29T02:27:29;18.20;64.80
16287;DHT22;8251;53.568;10.018;2022-07-29T02:30:02;18.20;64.90
16287;DHT22;8251;53.568;10.018;2022-07-29T02:32:30;18.20;65.00
16287;DHT22;8251;53.568;10.018;2022-07-29T02:34:58;18.20;65.10
16287;DHT22;8251;53.568;10.018;2022-07-29T02:37:27;18.20;65.20
16287;DHT22;8251;53.568;10.018;2022-07-29T02:39:56;18.20;65.30
16287;DHT22;8251;53.568;10.018;2022-07-29T02:42:26;18.20;65.40
16287;DHT22;8251;53.568;10.018;2022-07-29T02:44:54;18.20;65.30
16287;DHT22;8251;53.568;10.018;2022-07-29T02:47:30;18.20;65.50
16287;DHT22;8251;53.568;10.018;2022-07-29T02:50:00;18.20;66.30
16287;DHT22;8251;53.568;10.018;2022-07-29T02:52:37;18.20;65.60
16287;DHT22;8251;53.568;10.018;2022-07-29T02:55:22;18.10;65.70
16287;DHT22;8251;53.568;10.018;2022-07-29T02:57:54;18.10;65.70
16287;DHT22;8251;53.568;10.018;2022-07-29T03:00:28;18.10;65.80
16287;DHT22;8251;53.568;10.018;2022-07-29T03:02:59;18.10;66.00
16287;DHT22;8251;53.568;10.018;2022-07-29T03:05:26;18.10;66.00
16287;DHT22;8251;53.568;10.018;2022-07-29T03:07:56;18.10;66.10
16287;DHT22;8251;53.568;10.018;2022-07-29T03:10:25;18.10;66.10
16287;DHT22;8251;53.568;10.018;2022-07-29T03:12:53;18.10;66.10
16287;DHT22;8251;53.568;10.018;2022-07-29T03:15:21;18.10;66.10
16287;DHT22;8251;53.568;10.018;2022-07-29T03:17:49;18.10;66.00
16287;DHT22;8251;53.568;10.018;2022-07-29T03:20:17;18.10;66.10
16287;DHT22;8251;53.568;10.018;2022-07-29T03:22:45;18.10;66.10
16287;DHT22;8251;53.568;10.018;2022-07-29T03:25:14;18.10;66.10
16287;DHT22;8251;53.568;10.018;2022-07-29T03:27:41;18.10;66.20
16287;DHT22;8251;53.568;10.018;2022-07-29T03:30:09;18.10;66.50
16287;DHT22;8251;53.568;10.018;2022-07-29T03:32:37;18.10;66.50
16287;DHT22;8251;53.568;10.018;2022-07-29T03:35:05;18.10;66.50
16287;DHT22;8251;53.568;10.018;2022-07-29T03:37:34;18.10;66.50
16287;DHT22;8251;53.568;10.018;2022-07-29T03:40:04;18.10;66.40
16287;DHT22;8251;53.568;10.018;2022-07-29T03:42:33;18.10;66.50
16287;DHT22;8251;53.568;10.018;2022-07-29T03:45:05;18.10;66.50
16287;DHT22;8251;53.568;10.018;2022-07-29T03:47:35;18.10;66.50
16287;DHT22;8251;53.568;10.018;2022-07-29T03:50:06;18.10;66.60
16287;DHT22;8251;53.568;10.018;2022-07-29T03:52:36;18.10;66.60
16287;DHT22;8251;53.568;10.018;2022-07-29T03:55:04;18.10;66.70
16287;DHT22;8251;53.568;10.018;2022-07-29T03:57:32;18.10;66.70
16287;DHT22;8251;53.568;10.018;2022-07-29T04:00:02;18.10;66.60
16287;DHT22;8251;53.568;10.018;2022-07-29T04:02:30;18.20;66.60
16287;DHT22;8251;53.568;10.018;2022-07-29T04:04:58;18.20;66.80
16287;DHT22;8251;53.568;10.018;2022-07-29T04:07:25;18.20;66.80
16287;DHT22;8251;53.568;10.018;2022-07-29T04:09:53;18.20;66.80
16287;DHT22;8251;53.568;10.018;2022-07-29T04:12:20;18.20;66.70
16287;DHT22;8251;53.568;10.018;2022-07-29T04:14:47;18.30;66.70
16287;DHT22;8251;53.568;10.018;2022-07-29T04:17:15;18.30;66.50
16287;DHT22;8251;53.568;10.018;2022-07-29T04:19:42;18.30;66.50
16287;DHT22;8251;53.568;10.018;2022-07-29T04:22:09;18.30;66.30
16287;DHT22;8251;53.568;10.018;2022-07-29T04:24:36;18.30;66.30
16287;DHT22;8251;53.568;10.018;2022-07-29T04:27:04;18.30;66.30
16287;DHT22;8251;53.568;10.018;2022-07-29T04:29:31;18.30;66.20
16287;DHT22;8251;53.568;10.018;2022-07-29T04:31:58;18.30;66.40
16287;DHT22;8251;53.568;10.018;2022-07-29T04:34:25;18.30;66.50
16287;DHT22;8251;53.568;10.018;2022-07-29T04:36:52;18.30;66.30
16287;DHT22;8251;53.568;10.018;2022-07-29T04:39:19;18.30;66.50
16287;DHT22;8251;53.568;10.018;2022-07-29T04:41:46;18.30;66.40
16287;DHT22;8251;53.568;10.018;2022-07-29T04:44:14;18.30;66.50
16287;DHT22;8251;53.568;10.018;2022-07-29T04:46:41;18.40;66.40
16287;DHT22;8251;53.568;10.018;2022-07-29T04:49:08;18.40;66.40
16287;DHT22;8251;53.568;10.018;2022-07-29T04:51:35;18.40;66.40
16287;DHT22;8251;53.568;10.018;2022-07-29T04:54:04;18.50;66.40
16287;DHT22;8251;53.568;10.018;2022-07-29T04:56:31;18.50;66.40
16287;DHT22;8251;53.568;10.018;2022-07-29T04:58:58;18.50;66.20
16287;DHT22;8251;53.568;10.018;2022-07-29T05:01:27;18.50;66.10
16287;DHT22;8251;53.568;10.018;2022-07-29T05:03:54;18.60;66.00
16287;DHT22;8251;53.568;10.018;2022-07-29T05:06:21;18.60;66.00
16287;DHT22;8251;53.568;10.018;2022-07-29T05:08:48;18.60;66.00
16287;DHT22;8251;53.568;10.018;2022-07-29T05:11:18;18.70;66.00
16287;DHT22;8251;53.568;10.018;2022-07-29T05:13:49;18.70;65.80
16287;DHT22;8251;53.568;10.018;2022-07-29T05:16:16;18.70;65.80
16287;DHT22;8251;53.568;10.018;2022-07-29T05:18:45;18.70;66.00
16287;DHT22;8251;53.568;10.018;2022-07-29T05:21:12;18.80;66.10
16287;DHT22;8251;53.568;10.018;2022-07-29T05:23:39;18.80;66.00
16287;DHT22;8251;53.568;10.018;2022-07-29T05:26:05;18.90;65.80
16287;DHT22;8251;53.568;10.018;2022-07-29T05:28:33;18.90;65.60
16287;DHT22;8251;53.568;10.018;2022-07-29T05:31:00;19.00;65.40
16287;DHT22;8251;53.568;10.018;2022-07-29T05:33:29;19.00;65.40
16287;DHT22;8251;53.568;10.018;2022-07-29T05:35:57;19.00;65.40
16287;DHT22;8251;53.568;10.018;2022-07-29T05:38:24;19.10;65.40
16287;DHT22;8251;53.568;10.018;2022-07-29T05:40:51;19.10;64.90
16287;DHT22;8251;53.568;10.018;2022-07-29T05:43:18;19.10;64.80
16287;DHT22;8251;53.568;10.018;2022-07-29T05:45:46;19.20;64.90
16287;DHT22;8251;53.568;10.018;2022-07-29T05:48:13;19.20;64.70
16287;DHT22;8251;53.568;10.018;2022-07-29T05:50:40;19.20;64.50
16287;DHT22;8251;53.568;10.018;2022-07-29T05:53:08;19.30;64.70
16287;DHT22;8251;53.568;10.018;2022-07-29T05:55:35;19.30;64.70
16287;DHT22;8251;53.568;10.018;2022-07-29T05:58:02;19.30;64.90
16287;DHT22;8251;53.568;10.018;2022-07-29T06:00:30;19.40;64.70
16287;DHT22;8251;53.568;10.018;2022-07-29T06:02:57;19.40;64.70
16287;DHT22;8251;53.568;10.018;2022-07-29T06:05:23;19.50;64.70
16287;DHT22;8251;53.568;10.018;2022-07-29T06:07:51;19.50;64.60
16287;DHT22;8251;53.568;10.018;2022-07-29T06:10:20;19.50;64.60
16287;DHT22;8251;53.568;10.018;2022-07-29T06:12:47;19.60;64.70
16287;DHT22;8251;53.568;10.018;2022-07-29T06:15:13;19.70;64.70
16287;DHT22;8251;53.568;10.018;2022-07-29T06:17:43;19.70;64.50
16287;DHT22;8251;53.568;10.018;2022-07-29T06:20:10;19.80;64.40
16287;DHT22;8251;53.568;10.018;2022-07-29T06:22:38;19.90;64.00
16287;DHT22;8251;53.568;10.018;2022-07-29T06:25:06;20.00;64.10
16287;DHT22;8251;53.568;10.018;2022-07-29T06:27:34;20.10;63.90
16287;DHT22;8251;53.568;10.018;2022-07-29T06:30:02;20.50;63.40
16287;DHT22;8251;53.568;10.018;2022-07-29T06:32:32;20.60;62.80
16287;DHT22;8251;53.568;10.018;2022-07-29T06:34:59;20.60;62.50
16287;DHT22;8251;53.568;10.018;2022-07-29T06:37:26;20.60;62.30
16287;DHT22;8251;53.568;10.018;2022-07-29T06:39:53;20.60;62.30
16287;DHT22;8251;53.568;10.018;2022-07-29T06:42:35;20.60;62.30
16287;DHT22;8251;53.568;10.018;2022-07-29T06:45:03;20.70;62.30
16287;DHT22;8251;53.568;10.018;2022-07-29T06:47:30;20.70;62.30
16287;DHT22;8251;53.568;10.018;2022-07-29T06:49:57;20.80;62.20
16287;DHT22;8251;53.568;10.018;2022-07-29T06:52:24;20.80;62.10
16287;DHT22;8251;53.568;10.018;2022-07-29T06:54:51;20.90;61.60
16287;DHT22;8251;53.568;10.018;2022-07-29T06:57:19;20.90;61.70
16287;DHT22;8251;53.568;10.018;2022-07-29T06:59:47;20.90;61.90
16287;DHT22;8251;53.568;10.018;2022-07-29T07:02:14;21.00;61.70
16287;DHT22;8251;53.568;10.018;2022-07-29T07:04:41;21.00;61.50
16287;DHT22;8251;53.568;10.018;2022-07-29T07:07:08;21.00;61.50
16287;DHT22;8251;53.568;10.018;2022-07-29T07:09:35;21.00;61.40
16287;DHT22;8251;53.568;10.018;2022-07-29T07:12:03;21.10;61.40
16287;DHT22;8251;53.568;10.018;2022-07-29T07:14:33;21.10;61.60
16287;DHT22;8251;53.568;10.018;2022-07-29T07:17:04;21.10;61.20
16287;DHT22;8251;53.568;10.018;2022-07-29T07:19:32;21.20;61.20
16287;DHT22;8251;53.568;10.018;2022-07-29T07:21:59;21.20;61.30
16287;DHT22;8251;53.568;10.018;2022-07-29T07:24:26;21.20;61.30
16287;DHT22;8251;53.568;10.018;2022-07-29T07:26:53;21.30;61.10
16287;DHT22;8251;53.568;10.018;2022-07-29T07:29:20;21.30;61.00
16287;DHT22;8251;53.568;10.018;2022-07-29T07:31:47;21.40;61.00
16287;DHT22;8251;53.568;10.018;2022-07-29T07:34:16;21.40;61.00
16287;DHT22;8251;53.568;10.018;2022-07-29T07:36:43;21.40;60.50
16287;DHT22;8251;53.568;10.018;2022-07-29T07:39:09;21.50;60.60
16287;DHT22;8251;53.568;10.018;2022-07-29T07:41:36;21.50;60.80
16287;DHT22;8251;53.568;10.018;2022-07-29T07:44:04;21.60;60.60
16287;DHT22;8251;53.568;10.018;2022-07-29T07:46:31;21.60;60.10
16287;DHT22;8251;53.568;10.018;2022-07-29T07:48:58;21.60;60.00
16287;DHT22;8251;53.568;10.018;2022-07-29T07:51:27;21.70;60.00
16287;DHT22;8251;53.568;10.018;2022-07-29T07:53:54;21.80;60.10
16287;DHT22;8251;53.568;10.018;2022-07-29T07:56:20;21.80;60.20
16287;DHT22;8251;53.568;10.018;2022-07-29T07:58:48;21.90;59.80
16287;DHT22;8251;53.568;10.018;2022-07-29T08:01:16;22.00;59.80
16287;DHT22;8251;53.568;10.018;2022-07-29T08:03:45;22.10;59.90
16287;DHT22;8251;53.568;10.018;2022-07-29T08:06:13;22.20;60.00
16287;DHT22;8251;53.568;10.018;2022-07-29T08:08:41;22.40;60.00
16287;DHT22;8251;53.568;10.018;2022-07-29T08:11:08;22.60;59.90
16287;DHT22;8251;53.568;10.018;2022-07-29T08:13:36;22.70;59.30
16287;DHT22;8251;53.568;10.018;2022-07-29T08:16:06;23.00;58.50
16287;DHT22;8251;53.568;10.018;2022-07-29T08:18:43;23.20;58.00
16287;DHT22;8251;53.568;10.018;2022-07-29T08:21:13;23.50;57.80
16287;DHT22;8251;53.568;10.018;2022-07-29T08:23:45;23.80;57.40
16287;DHT22;8251;53.568;10.018;2022-07-29T08:26:15;24.10;56.70
16287;DHT22;8251;53.568;10.018;2022-07-29T08:28:43;24.50;55.90
16287;DHT22;8251;53.568;10.018;2022-07-29T08:31:13;24.80;54.50
16287;DHT22;8251;53.568;10.018;2022-07-29T08:33:48;25.40;53.50
16287;DHT22;8251;53.568;10.018;2022-07-29T08:36:21;26.20;52.20
16287;DHT22;8251;53.568;10.018;2022-07-29T08:38:52;27.10;49.90
16287;DHT22;8251;53.568;10.018;2022-07-29T08:41:20;28.00;48.70
16287;DHT22;8251;53.568;10.018;2022-07-29T08:43:47;28.70;47.30
16287;DHT22;8251;53.568;10.018;2022-07-29T08:46:14;29.20;46.10
16287;DHT22;8251;53.568;10.018;2022-07-29T08:48:42;29.60;45.20
16287;DHT22;8251;53.568;10.018;2022-07-29T08:51:14;30.00;44.60
16287;DHT22;8251;53.568;10.018;2022-07-29T08:53:42;30.30;44.00
16287;DHT22;8251;53.568;10.018;2022-07-29T08:56:13;30.30;43.80
16287;DHT22;8251;53.568;10.018;2022-07-29T08:58:42;30.30;44.20
16287;DHT22;8251;53.568;10.018;2022-07-29T09:01:10;30.20;44.00
16287;DHT22;8251;53.568;10.018;2022-07-29T09:03:40;30.20;43.90
16287;DHT22;8251;53.568;10.018;2022-07-29T09:06:08;30.20;44.00
16287;DHT22;8251;53.568;10.018;2022-07-29T09:08:35;30.20;43.90
16287;DHT22;8251;53.568;10.018;2022-07-29T09:11:02;30.20;44.10
16287;DHT22;8251;53.568;10.018;2022-07-29T09:13:31;30.20;44.10
16287;DHT22;8251;53.568;10.018;2022-07-29T09:15:58;30.30;43.70
16287;DHT22;8251;53.568;10.018;2022-07-29T09:18:36;30.20;43.40
16287;DHT22;8251;53.568;10.018;2022-07-29T09:21:05;30.10;43.50
16287;DHT22;8251;53.568;10.018;2022-07-29T09:24:00;30.10;43.70
16287;DHT22;8251;53.568;10.018;2022-07-29T09:26:28;30.20;43.40
16287;DHT22;8251;53.568;10.018;2022-07-29T09:28:58;30.10;42.80
16287;DHT22;8251;53.568;10.018;2022-07-29T09:31:40;29.90;43.20
16287;DHT22;8251;53.568;10.018;2022-07-29T09:34:11;29.60;43.00
16287;DHT22;8251;53.568;10.018;2022-07-29T09:36:40;29.40;43.30
16287;DHT22;8251;53.568;10.018;2022-07-29T09:39:08;29.10;43.90
16287;DHT22;8251;53.568;10.018;2022-07-29T09:41:46;28.80;44.40
16287;DHT22;8251;53.568;10.018;2022-07-29T09:44:15;28.60;44.90
16287;DHT22;8251;53.568;10.018;2022-07-29T09:46:54;28.40;45.30
16287;DHT22;8251;53.568;10.018;2022-07-29T09:49:21;28.10;45.60
16287;DHT22;8251;53.568;10.018;2022-07-29T09:51:59;27.90;46.20
16287;DHT22;8251;53.568;10.018;2022-07-29T09:54:27;27.80;46.80
16287;DHT22;8251;53.568;10.018;2022-07-29T09:56:55;27.80;46.20
16287;DHT22;8251;53.568;10.018;2022-07-29T09:59:24;27.70;46.20
16287;DHT22;8251;53.568;10.018;2022-07-29T10:01:52;27.60;46.20
16287;DHT22;8251;53.568;10.018;2022-07-29T10:04:19;27.60;45.80
16287;DHT22;8251;53.568;10.018;2022-07-29T10:06:57;27.50;45.30
16287;DHT22;8251;53.568;10.018;2022-07-29T10:09:24;27.50;45.10
16287;DHT22;8251;53.568;10.018;2022-07-29T10:12:09;27.40;45.60
16287;DHT22;8251;53.568;10.018;2022-07-29T10:14:42;27.40;46.20
16287;DHT22;8251;53.568;10.018;2022-07-29T10:17:10;27.30;46.00
16287;DHT22;8251;53.568;10.018;2022-07-29T10:19:38;27.20;46.10
16287;DHT22;8251;53.568;10.018;2022-07-29T10:22:07;27.20;46.30
16287;DHT22;8251;53.568;10.018;2022-07-29T10:24:35;27.10;46.80
16287;DHT22;8251;53.568;10.018;2022-07-29T10:27:05;27.00;47.00
16287;DHT22;8251;53.568;10.018;2022-07-29T10:29:32;27.00;46.70
16287;DHT22;8251;53.568;10.018;2022-07-29T10:32:34;26.90;46.00
16287;DHT22;8251;53.568;10.018;2022-07-29T10:35:16;26.80;46.30
16287;DHT22;8251;53.568;10.018;2022-07-29T10:38:21;26.70;46.30
16287;DHT22;8251;53.568;10.018;2022-07-29T10:41:00;26.70;45.80
16287;DHT22;8251;53.568;10.018;2022-07-29T10:43:49;26.50;46.20
16287;DHT22;8251;53.568;10.018;2022-07-29T10:46:16;26.50;46.50
16287;DHT22;8251;53.568;10.018;2022-07-29T10:49:07;26.50;46.90
16287;DHT22;8251;53.568;10.018;2022-07-29T10:51:54;26.50;47.40
16287;DHT22;8251;53.568;10.018;2022-07-29T10:54:40;26.50;46.80
16287;DHT22;8251;53.568;10.018;2022-07-29T10:57:16;26.40;46.80
16287;DHT22;8251;53.568;10.018;2022-07-29T10:59:45;26.50;47.10
16287;DHT22;8251;53.568;10.018;2022-07-29T11:02:41;26.50;47.40
16287;DHT22;8251;53.568;10.018;2022-07-29T11:05:19;26.80;47.60
16287;DHT22;8251;53.568;10.018;2022-07-29T11:08:20;26.90;46.80
16287;DHT22;8251;53.568;10.018;2022-07-29T11:10:49;27.00;46.10
16287;DHT22;8251;53.568;10.018;2022-07-29T11:13:45;27.10;46.10
16287;DHT22;8251;53.568;10.018;2022-07-29T11:16:16;27.20;46.10
16287;DHT22;8251;53.568;10.018;2022-07-29T11:19:21;27.50;45.70
16287;DHT22;8251;53.568;10.018;2022-07-29T11:21:52;27.70;44.80
16287;DHT22;8251;53.568;10.018;2022-07-29T11:24:20;28.00;44.80
16287;DHT22;8251;53.568;10.018;2022-07-29T11:27:15;28.30;44.90
16287;DHT22;8251;53.568;10.018;2022-07-29T11:29:51;28.60;43.80
16287;DHT22;8251;53.568;10.018;2022-07-29T11:32:19;28.80;43.90
16287;DHT22;8251;53.568;10.018;2022-07-29T11:34:47;28.80;43.60
16287;DHT22;8251;53.568;10.018;2022-07-29T11:37:25;28.90;43.30
16287;DHT22;8251;53.568;10.018;2022-07-29T11:40:15;28.90;43.20
16287;DHT22;8251;53.568;10.018;2022-07-29T11:42:51;29.00;43.00
16287;DHT22;8251;53.568;10.018;2022-07-29T11:45:24;29.00;43.10
16287;DHT22;8251;53.568;10.018;2022-07-29T11:47:56;29.10;42.60
16287;DHT22;8251;53.568;10.018;2022-07-29T11:50:33;29.10;42.60
16287;DHT22;8251;53.568;10.018;2022-07-29T11:53:11;29.10;42.40
16287;DHT22;8251;53.568;10.018;2022-07-29T11:55:39;29.10;42.50
16287;DHT22;8251;53.568;10.018;2022-07-29T11:58:06;29.10;42.60
16287;DHT22;8251;53.568;10.018;2022-07-29T12:00:35;29.10;42.10
16287;DHT22;8251;53.568;10.018;2022-07-29T12:03:05;29.20;42.00
16287;DHT22;8251;53.568;10.018;2022-07-29T12:05:35;29.30;42.10
16287;DHT22;8251;53.568;10.018;2022-07-29T12:08:12;29.50;41.70
16287;DHT22;8251;53.568;10.018;2022-07-29T12:10:40;29.70;41.70
16287;DHT22;8251;53.568;10.018;2022-07-29T12:13:08;30.00;40.80
16287;DHT22;8251;53.568;10.018;2022-07-29T12:15:36;30.20;40.10
16287;DHT22;8251;53.568;10.018;2022-07-29T12:18:14;30.50;40.30
16287;DHT22;8251;53.568;10.018;2022-07-29T12:20:42;30.70;39.40
16287;DHT22;8251;53.568;10.018;2022-07-29T12:23:11;30.90;39.90
16287;DHT22;8251;53.568;10.018;2022-07-29T12:25:40;31.20;39.30
16287;DHT22;8251;53.568;10.018;2022-07-29T12:28:18;31.40;38.70
16287;DHT22;8251;53.568;10.018;2022-07-29T12:31:01;31.50;38.30
16287;DHT22;8251;53.568;10.018;2022-07-29T12:33:33;31.50;38.60
16287;DHT22;8251;53.568;10.018;2022-07-29T12:36:01;31.40;38.50
16287;DHT22;8251;53.568;10.018;2022-07-29T12:38:30;31.40;38.70
16287;DHT22;8251;53.568;10.018;2022-07-29T12:40:57;31.50;38.80
16287;DHT22;8251;53.568;10.018;2022-07-29T12:43:25;31.80;38.00
16287;DHT22;8251;53.568;10.018;2022-07-29T12:45:53;31.90;36.80
16287;DHT22;8251;53.568;10.018;2022-07-29T12:48:33;32.00;37.00
16287;DHT22;8251;53.568;10.018;2022-07-29T12:51:01;32.10;37.10
16287;DHT22;8251;53.568;10.018;2022-07-29T12:53:30;32.10;37.40
16287;DHT22;8251;53.568;10.018;2022-07-29T12:55:58;32.00;37.10
16287;DHT22;8251;53.568;10.018;2022-07-29T12:58:32;31.90;36.70
16287;DHT22;8251;53.568;10.018;2022-07-29T13:01:07;31.80;37.00
16287;DHT22;8251;53.568;10.018;2022-07-29T13:03:49;31.80;36.60
16287;DHT22;8251;53.568;10.018;2022-07-29T13:06:31;31.80;36.10
16287;DHT22;8251;53.568;10.018;2022-07-29T13:09:05;31.80;36.10
16287;DHT22;8251;53.568;10.018;2022-07-29T13:11:33;31.90;36.50
16287;DHT22;8251;53.568;10.018;2022-07-29T13:14:08;32.10;36.00
16287;DHT22;8251;53.568;10.018;2022-07-29T13:17:02;32.20;36.20
16287;DHT22;8251;53.568;10.018;2022-07-29T13:19:34;32.30;35.20
16287;DHT22;8251;53.568;10.018;2022-07-29T13:22:01;32.30;35.70
16287;DHT22;8251;53.568;10.018;2022-07-29T13:24:30;32.40;34.70
16287;DHT22;8251;53.568;10.018;2022-07-29T13:26:57;32.50;34.80
16287;DHT22;8251;53.568;10.018;2022-07-29T13:29:24;32.60;34.10
16287;DHT22;8251;53.568;10.018;2022-07-29T13:31:53;32.60;34.30
16287;DHT22;8251;53.568;10.018;2022-07-29T13:34:20;32.70;34.00
16287;DHT22;8251;53.568;10.018;2022-07-29T13:36:49;32.70;34.10
16287;DHT22;8251;53.568;10.018;2022-07-29T13:39:16;32.80;35.20
16287;DHT22;8251;53.568;10.018;2022-07-29T13:41:45;32.80;39.00
16287;DHT22;8251;53.568;10.018;2022-07-29T13:44:12;32.80;39.40
16287;DHT22;8251;53.568;10.018;2022-07-29T13:46:39;32.70;40.60
16287;DHT22;8251;53.568;10.018;2022-07-29T13:49:06;32.60;40.40
16287;DHT22;8251;53.568;10.018;2022-07-29T13:51:33;32.40;40.80
16287;DHT22;8251;53.568;10.018;2022-07-29T13:54:00;32.20;41.30
16287;DHT22;8251;53.568;10.018;2022-07-29T13:56:27;31.90;41.60
16287;DHT22;8251;53.568;10.018;2022-07-29T13:58:56;31.70;42.10
16287;DHT22;8251;53.568;10.018;2022-07-29T14:01:23;31.50;41.90
16287;DHT22;8251;53.568;10.018;2022-07-29T14:03:51;31.30;43.10
16287;DHT22;8251;53.568;10.018;2022-07-29T14:06:19;31.10;42.90
16287;DHT22;8251;53.568;10.018;2022-07-29T14:08:46;30.80;43.30
16287;DHT22;8251;53.568;10.018;2022-07-29T14:11:14;30.70;43.50
16287;DHT22;8251;53.568;10.018;2022-07-29T14:13:41;30.50;43.70
16287;DHT22;8251;53.568;10.018;2022-07-29T14:16:13;30.40;44.10
16287;DHT22;8251;53.568;10.018;2022-07-29T14:18:41;30.30;44.40
16287;DHT22;8251;53.568;10.018;2022-07-29T14:21:10;30.20;44.70
16287;DHT22;8251;53.568;10.018;2022-07-29T14:23:37;30.10;45.20
16287;DHT22;8251;53.568;10.018;2022-07-29T14:26:05;30.00;45.40
16287;DHT22;8251;53.568;10.018;2022-07-29T14:28:32;29.80;45.20
16287;DHT22;8251;53.568;10.018;2022-07-29T14:30:59;29.70;45.40
16287;DHT22;8251;53.568;10.018;2022-07-29T14:33:28;29.60;45.60
16287;DHT22;8251;53.568;10.018;2022-07-29T14:35:55;29.50;46.00
16287;DHT22;8251;53.568;10.018;2022-07-29T14:38:22;29.40;45.80
16287;DHT22;8251;53.568;10.018;2022-07-29T14:40:49;29.30;46.10
16287;DHT22;8251;53.568;10.018;2022-07-29T14:43:17;29.10;46.50
16287;DHT22;8251;53.568;10.018;2022-07-29T14:45:44;28.90;46.70
16287;DHT22;8251;53.568;10.018;2022-07-29T14:48:11;28.80;47.10
16287;DHT22;8251;53.568;10.018;2022-07-29T14:50:40;28.70;47.20
16287;DHT22;8251;53.568;10.018;2022-07-29T14:53:07;28.70;47.30
16287;DHT22;8251;53.568;10.018;2022-07-29T14:55:38;28.70;47.20
16287;DHT22;8251;53.568;10.018;2022-07-29T14:58:12;28.80;47.30
16287;DHT22;8251;53.568;10.018;2022-07-29T15:00:41;28.90;47.20
16287;DHT22;8251;53.568;10.018;2022-07-29T15:03:10;28.90;47.20
16287;DHT22;8251;53.568;10.018;2022-07-29T15:05:37;29.00;47.40
16287;DHT22;8251;53.568;10.018;2022-07-29T15:08:07;29.00;47.50
16287;DHT22;8251;53.568;10.018;2022-07-29T15:10:35;29.00;47.50
16287;DHT22;8251;53.568;10.018;2022-07-29T15:13:03;29.00;47.50
16287;DHT22;8251;53.568;10.018;2022-07-29T15:15:30;29.00;47.40
16287;DHT22;8251;53.568;10.018;2022-07-29T15:17:57;29.10;47.50
16287;DHT22;8251;53.568;10.018;2022-07-29T15:20:27;29.10;47.50
16287;DHT22;8251;53.568;10.018;2022-07-29T15:23:02;29.10;47.60
16287;DHT22;8251;53.568;10.018;2022-07-29T15:25:37;29.10;47.10
16287;DHT22;8251;53.568;10.018;2022-07-29T15:28:04;29.10;46.80
16287;DHT22;8251;53.568;10.018;2022-07-29T15:30:34;29.10;47.00
16287;DHT22;8251;53.568;10.018;2022-07-29T15:33:06;29.00;47.20
16287;DHT22;8251;53.568;10.018;2022-07-29T15:35:33;28.80;47.30
16287;DHT22;8251;53.568;10.018;2022-07-29T15:38:00;28.70;47.50
16287;DHT22;8251;53.568;10.018;2022-07-29T15:40:28;28.70;47.70
16287;DHT22;8251;53.568;10.018;2022-07-29T15:42:57;28.70;47.60
16287;DHT22;8251;53.568;10.018;2022-07-29T15:45:28;28.70;47.80
16287;DHT22;8251;53.568;10.018;2022-07-29T15:47:55;28.70;47.90
16287;DHT22;8251;53.568;10.018;2022-07-29T15:50:22;28.70;48.10
16287;DHT22;8251;53.568;10.018;2022-07-29T15:52:48;28.60;48.20